Accord, New York
Current Conditions -  °F | °C
As of 1:54 AM on Saturday 01 Nov 2014 (Local Time) from KMGJ Reporting Station
Overcast Overcast  
Wind Chill: 41°   Ceiling: 3500
Heat Index: 46°   Visibility: 10mi
Dew Point: 38°   Wind: 9mph
Humidity: 73%   Direction: 40°NE
Pressure: 29.9"   Gusts: NA
Location:  41.79°N, 74.23°W
Report Text: KMGJ 010554Z AUTO 04008KT 10SM OVC035 08/03 A2990 RMK AO2 SLP124 60000 T00780033 10094 20078 58004 TSNO
Loading
Personal Weather Stations






























Interactive Weather Map
Tropical Storm Tracking
New forecast layout! Learn more

10-Day Weather Forecast

Advertisements
Track Severe Weather on mobile